sensor_id;sensor_type;location;lat;lon;timestamp;pressure;altitude;pressure_sealevel;temperature;humidity
25947;BME280;13745;51.470;9.894;2024-02-15T00:01:28;99515.00;;;11.71;91.59
25947;BME280;13745;51.470;9.894;2024-02-15T00:04:14;99510.69;;;11.71;91.56
25947;BME280;13745;51.470;9.894;2024-02-15T00:07:00;99513.22;;;11.74;91.68
25947;BME280;13745;51.470;9.894;2024-02-15T00:09:45;99506.28;;;11.75;91.61
25947;BME280;13745;51.470;9.894;2024-02-15T00:12:31;99506.28;;;11.76;91.75
25947;BME280;13745;51.470;9.894;2024-02-15T00:15:18;99510.56;;;11.79;91.49
25947;BME280;13745;51.470;9.894;2024-02-15T00:18:04;99510.56;;;11.79;91.49
25947;BME280;13745;51.470;9.894;2024-02-15T00:20:49;99500.16;;;11.79;91.49
25947;BME280;13745;51.470;9.894;2024-02-15T00:23:34;99506.22;;;11.81;91.53
25947;BME280;13745;51.470;9.894;2024-02-15T00:26:19;99517.44;;;11.83;91.59
25947;BME280;13745;51.470;9.894;2024-02-15T00:29:05;99503.59;;;11.82;91.46
25947;BME280;13745;51.470;9.894;2024-02-15T00:31:51;99507.03;;;11.85;91.65
25947;BME280;13745;51.470;9.894;2024-02-15T00:34:36;99502.69;;;11.87;91.79
25947;BME280;13745;51.470;9.894;2024-02-15T00:37:22;99502.69;;;11.87;91.54
25947;BME280;13745;51.470;9.894;2024-02-15T00:40:08;99507.88;;;11.87;91.54
25947;BME280;13745;51.470;9.894;2024-02-15T00:42:54;99506.13;;;11.87;91.57
25947;BME280;13745;51.470;9.894;2024-02-15T00:45:39;99506.91;;;11.91;91.46
25947;BME280;13745;51.470;9.894;2024-02-15T00:48:26;99506.06;;;11.90;91.50
25947;BME280;13745;51.470;9.894;2024-02-15T00:51:12;99516.44;;;11.90;91.46
25947;BME280;13745;51.470;9.894;2024-02-15T00:53:57;99515.56;;;11.93;91.48
25947;BME280;13745;51.470;9.894;2024-02-15T00:56:42;99517.25;;;11.95;91.60
25947;BME280;13745;51.470;9.894;2024-02-15T00:59:27;99518.97;;;11.96;91.65
25947;BME280;13745;51.470;9.894;2024-02-15T01:02:13;99524.13;;;11.98;91.35
25947;BME280;13745;51.470;9.894;2024-02-15T01:04:59;99515.44;;;11.99;91.49
25947;BME280;13745;51.470;9.894;2024-02-15T01:07:44;99524.94;;;12.01;91.35
25947;BME280;13745;51.470;9.894;2024-02-15T01:10:32;99524.09;;;12.01;91.27
25947;BME280;13745;51.470;9.894;2024-02-15T01:13:17;99525.84;;;12.00;91.38
25947;BME280;13745;51.470;9.894;2024-02-15T01:16:04;99525.84;;;12.00;91.44
25947;BME280;13745;51.470;9.894;2024-02-15T01:18:49;99517.16;;;12.01;91.23
25947;BME280;13745;51.470;9.894;2024-02-15T01:21:35;99519.72;;;12.03;91.39
25947;BME280;13745;51.470;9.894;2024-02-15T01:24:20;99512.78;;;12.03;91.53
25947;BME280;13745;51.470;9.894;2024-02-15T01:27:06;99512.72;;;12.06;91.37
25947;BME280;13745;51.470;9.894;2024-02-15T01:29:51;99504.94;;;12.05;91.39
25947;BME280;13745;51.470;9.894;2024-02-15T01:32:36;99514.47;;;12.06;91.74
25947;BME280;13745;51.470;9.894;2024-02-15T01:35:25;99505.81;;;12.05;91.40
25947;BME280;13745;51.470;9.894;2024-02-15T01:38:11;99514.50;;;12.04;91.51
25947;BME280;13745;51.470;9.894;2024-02-15T01:40:57;99505.81;;;12.05;91.38
25947;BME280;13745;51.470;9.894;2024-02-15T01:43:43;99507.56;;;12.05;91.50
25947;BME280;13745;51.470;9.894;2024-02-15T01:46:28;99514.50;;;12.04;91.74
25947;BME280;13745;51.470;9.894;2024-02-15T01:49:15;99501.53;;;12.03;91.50
25947;BME280;13745;51.470;9.894;2024-02-15T01:52:01;99509.31;;;12.03;91.46
25947;BME280;13745;51.470;9.894;2024-02-15T01:54:49;99512.81;;;12.02;91.53
25947;BME280;13745;51.470;9.894;2024-02-15T01:57:36;99503.28;;;12.02;91.64
25947;BME280;13745;51.470;9.894;2024-02-15T02:00:22;99511.06;;;12.02;91.73
25947;BME280;13745;51.470;9.894;2024-02-15T02:03:08;99507.66;;;11.99;91.80
25947;BME280;13745;51.470;9.894;2024-02-15T02:05:56;99500.75;;;11.98;91.90
25947;BME280;13745;51.470;9.894;2024-02-15T02:08:41;99501.66;;;11.95;91.96
25947;BME280;13745;51.470;9.894;2024-02-15T02:11:27;99492.13;;;11.96;92.02
25947;BME280;13745;51.470;9.894;2024-02-15T02:14:13;99492.97;;;11.96;91.88
25947;BME280;13745;51.470;9.894;2024-02-15T02:17:10;99495.53;;;11.98;92.05
25947;BME280;13745;51.470;9.894;2024-02-15T02:19:55;99495.56;;;11.96;92.20
25947;BME280;13745;51.470;9.894;2024-02-15T02:22:41;99493.81;;;11.98;92.03
25947;BME280;13745;51.470;9.894;2024-02-15T02:25:31;99481.69;;;11.97;92.07
25947;BME280;13745;51.470;9.894;2024-02-15T02:28:16;99481.69;;;11.97;91.92
25947;BME280;13745;51.470;9.894;2024-02-15T02:31:01;99481.66;;;11.99;92.08
25947;BME280;13745;51.470;9.894;2024-02-15T02:33:49;99481.66;;;11.99;92.06
25947;BME280;13745;51.470;9.894;2024-02-15T02:36:35;99490.31;;;12.01;92.02
25947;BME280;13745;51.470;9.894;2024-02-15T02:39:21;99490.31;;;12.01;92.02
25947;BME280;13745;51.470;9.894;2024-02-15T02:42:09;99486.78;;;12.03;91.90
25947;BME280;13745;51.470;9.894;2024-02-15T02:44:54;99485.06;;;12.04;92.02
25947;BME280;13745;51.470;9.894;2024-02-15T02:47:39;99488.50;;;12.04;92.06
25947;BME280;13745;51.470;9.894;2024-02-15T02:50:25;99480.75;;;12.03;92.07
25947;BME280;13745;51.470;9.894;2024-02-15T02:53:10;99485.91;;;12.04;91.91
25947;BME280;13745;51.470;9.894;2024-02-15T02:55:56;99487.66;;;12.04;91.89
25947;BME280;13745;51.470;9.894;2024-02-15T02:58:43;99479.84;;;12.04;91.95
25947;BME280;13745;51.470;9.894;2024-02-15T03:01:28;99484.16;;;12.05;91.94
25947;BME280;13745;51.470;9.894;2024-02-15T03:04:15;99483.31;;;12.04;92.10
25947;BME280;13745;51.470;9.894;2024-02-15T03:07:00;99487.66;;;12.04;91.96
25947;BME280;13745;51.470;9.894;2024-02-15T03:09:45;99485.06;;;12.04;91.97
25947;BME280;13745;51.470;9.894;2024-02-15T03:12:31;99484.16;;;12.05;91.91
25947;BME280;13745;51.470;9.894;2024-02-15T03:15:20;99488.47;;;12.06;92.01
25947;BME280;13745;51.470;9.894;2024-02-15T03:18:06;99483.25;;;12.07;91.73
25947;BME280;13745;51.470;9.894;2024-02-15T03:20:52;99470.25;;;12.07;91.95
25947;BME280;13745;51.470;9.894;2024-02-15T03:23:37;99478.91;;;12.08;91.87
25947;BME280;13745;51.470;9.894;2024-02-15T03:26:29;99477.19;;;12.07;92.19
25947;BME280;13745;51.470;9.894;2024-02-15T03:29:15;99484.16;;;12.05;92.04
25947;BME280;13745;51.470;9.894;2024-02-15T03:32:01;99481.56;;;12.05;91.75
25947;BME280;13745;51.470;9.894;2024-02-15T03:34:47;99486.75;;;12.05;92.04
25947;BME280;13745;51.470;9.894;2024-02-15T03:37:32;99489.38;;;12.05;91.89
25947;BME280;13745;51.470;9.894;2024-02-15T03:40:21;99491.06;;;12.06;91.94
25947;BME280;13745;51.470;9.894;2024-02-15T03:43:08;99492.78;;;12.08;91.96
25947;BME280;13745;51.470;9.894;2024-02-15T03:45:53;99497.09;;;12.08;91.79
25947;BME280;13745;51.470;9.894;2024-02-15T03:48:41;99490.19;;;12.08;91.73
25947;BME280;13745;51.470;9.894;2024-02-15T03:51:27;99485.84;;;12.09;92.03
25947;BME280;13745;51.470;9.894;2024-02-15T03:54:12;99480.69;;;12.06;91.86
25947;BME280;13745;51.470;9.894;2024-02-15T03:56:58;99489.41;;;12.03;91.74
25947;BME280;13745;51.470;9.894;2024-02-15T03:59:43;99492.03;;;12.02;92.04
25947;BME280;13745;51.470;9.894;2024-02-15T04:02:31;99496.38;;;12.01;92.08
25947;BME280;13745;51.470;9.894;2024-02-15T04:05:17;99498.06;;;12.02;91.92
25947;BME280;13745;51.470;9.894;2024-02-15T04:08:03;99501.56;;;12.01;92.02
25947;BME280;13745;51.470;9.894;2024-02-15T04:10:49;99500.72;;;12.01;91.98
25947;BME280;13745;51.470;9.894;2024-02-15T04:13:34;99501.56;;;12.01;92.00
25947;BME280;13745;51.470;9.894;2024-02-15T04:16:20;99499.81;;;12.02;92.00
25947;BME280;13745;51.470;9.894;2024-02-15T04:19:05;99497.22;;;12.02;92.12
25947;BME280;13745;51.470;9.894;2024-02-15T04:21:51;99496.38;;;12.01;92.07
25947;BME280;13745;51.470;9.894;2024-02-15T04:24:37;99488.53;;;12.03;92.12
25947;BME280;13745;51.470;9.894;2024-02-15T04:27:23;99490.25;;;12.04;92.17
25947;BME280;13745;51.470;9.894;2024-02-15T04:30:09;99492.03;;;12.02;92.02
25947;BME280;13745;51.470;9.894;2024-02-15T04:32:55;99497.22;;;12.02;92.06
25947;BME280;13745;51.470;9.894;2024-02-15T04:35:41;99498.94;;;12.03;92.17
25947;BME280;13745;51.470;9.894;2024-02-15T04:38:28;99496.31;;;12.04;92.01
25947;BME280;13745;51.470;9.894;2024-02-15T04:41:13;99497.13;;;12.06;92.04
25947;BME280;13745;51.470;9.894;2024-02-15T04:43:58;99497.09;;;12.08;91.83
25947;BME280;13745;51.470;9.894;2024-02-15T04:46:43;99506.56;;;12.12;91.86
25947;BME280;13745;51.470;9.894;2024-02-15T04:49:29;99500.50;;;12.12;91.85
25947;BME280;13745;51.470;9.894;2024-02-15T04:52:14;99502.22;;;12.13;91.95
25947;BME280;13745;51.470;9.894;2024-02-15T04:55:03;99501.38;;;12.12;91.77
25947;BME280;13745;51.470;9.894;2024-02-15T04:57:49;99505.75;;;12.10;91.97
25947;BME280;13745;51.470;9.894;2024-02-15T05:00:38;99511.81;;;12.09;91.89
25947;BME280;13745;51.470;9.894;2024-02-15T05:03:23;99507.50;;;12.09;92.06
25947;BME280;13745;51.470;9.894;2024-02-15T05:06:08;99504.88;;;12.09;91.80
25947;BME280;13745;51.470;9.894;2024-02-15T05:08:53;99511.78;;;12.11;91.91
25947;BME280;13745;51.470;9.894;2024-02-15T05:11:41;99503.16;;;12.10;91.93
25947;BME280;13745;51.470;9.894;2024-02-15T05:14:30;99501.44;;;12.09;91.84
25947;BME280;13745;51.470;9.894;2024-02-15T05:17:15;99509.22;;;12.09;91.94
25947;BME280;13745;51.470;9.894;2024-02-15T05:20:00;99516.16;;;12.07;91.92
25947;BME280;13745;51.470;9.894;2024-02-15T05:22:48;99514.44;;;12.09;91.94
25947;BME280;13745;51.470;9.894;2024-02-15T05:25:33;99513.50;;;12.12;91.78
25947;BME280;13745;51.470;9.894;2024-02-15T05:28:20;99516.94;;;12.14;91.58
25947;BME280;13745;51.470;9.894;2024-02-15T05:31:11;99506.50;;;12.15;91.54
25947;BME280;13745;51.470;9.894;2024-02-15T05:33:58;99497.03;;;12.13;91.49
25947;BME280;13745;51.470;9.894;2024-02-15T05:36:43;99507.41;;;12.13;91.71
25947;BME280;13745;51.470;9.894;2024-02-15T05:39:28;99510.81;;;12.16;91.59
25947;BME280;13745;51.470;9.894;2024-02-15T05:42:13;99509.09;;;12.17;91.67
25947;BME280;13745;51.470;9.894;2024-02-15T05:45:30;99503.91;;;12.17;91.64
25947;BME280;13745;51.470;9.894;2024-02-15T05:48:16;99507.34;;;12.17;91.40
25947;BME280;13745;51.470;9.894;2024-02-15T05:51:02;99502.13;;;12.19;91.68
25947;BME280;13745;51.470;9.894;2024-02-15T05:53:47;99498.59;;;12.21;91.42
25947;BME280;13745;51.470;9.894;2024-02-15T05:56:33;99504.66;;;12.22;91.55
25947;BME280;13745;51.470;9.894;2024-02-15T05:59:18;99500.34;;;12.21;91.62
25947;BME280;13745;51.470;9.894;2024-02-15T06:02:05;99510.78;;;12.19;91.61
25947;BME280;13745;51.470;9.894;2024-02-15T06:04:51;99503.91;;;12.15;91.79
25947;BME280;13745;51.470;9.894;2024-02-15T06:07:37;99503.91;;;12.15;91.77
25947;BME280;13745;51.470;9.894;2024-02-15T06:10:23;99510.00;;;12.14;91.91
25947;BME280;13745;51.470;9.894;2024-02-15T06:13:09;99511.69;;;12.15;91.98
25947;BME280;13745;51.470;9.894;2024-02-15T06:15:54;99515.16;;;12.16;92.04
25947;BME280;13745;51.470;9.894;2024-02-15T06:18:40;99515.19;;;12.14;92.15
25947;BME280;13745;51.470;9.894;2024-02-15T06:21:26;99516.00;;;12.16;92.12
25947;BME280;13745;51.470;9.894;2024-02-15T06:24:11;99520.34;;;12.17;92.10
25947;BME280;13745;51.470;9.894;2024-02-15T06:26:56;99521.19;;;12.18;92.15
25947;BME280;13745;51.470;9.894;2024-02-15T06:29:43;99519.41;;;12.21;92.02
25947;BME280;13745;51.470;9.894;2024-02-15T06:32:46;99522.81;;;12.25;91.91
25947;BME280;13745;51.470;9.894;2024-02-15T06:35:50;99525.38;;;12.26;91.97
25947;BME280;13745;51.470;9.894;2024-02-15T06:38:53;99525.34;;;12.28;91.77
25947;BME280;13745;51.470;9.894;2024-02-15T06:41:56;99521.84;;;12.29;91.71
25947;BME280;13745;51.470;9.894;2024-02-15T06:44:41;99518.38;;;12.30;91.70
25947;BME280;13745;51.470;9.894;2024-02-15T06:47:26;99524.41;;;12.30;91.67
25947;BME280;13745;51.470;9.894;2024-02-15T06:50:12;99525.25;;;12.32;91.60
25947;BME280;13745;51.470;9.894;2024-02-15T06:52:58;99526.06;;;12.36;91.36
25947;BME280;13745;51.470;9.894;2024-02-15T06:55:43;99520.84;;;12.37;91.54
25947;BME280;13745;51.470;9.894;2024-02-15T06:58:30;99519.94;;;12.38;91.22
25947;BME280;13745;51.470;9.894;2024-02-15T07:01:15;99523.41;;;12.39;91.36
25947;BME280;13745;51.470;9.894;2024-02-15T07:04:01;99513.81;;;12.43;91.20
25947;BME280;13745;51.470;9.894;2024-02-15T07:06:47;99524.97;;;12.48;91.03
25947;BME280;13745;51.470;9.894;2024-02-15T07:09:35;99514.53;;;12.49;91.00
25947;BME280;13745;51.470;9.894;2024-02-15T07:12:20;99523.16;;;12.53;91.10
25947;BME280;13745;51.470;9.894;2024-02-15T07:15:06;99520.44;;;12.57;90.82
25947;BME280;13745;51.470;9.894;2024-02-15T07:17:52;99509.13;;;12.61;90.60
25947;BME280;13745;51.470;9.894;2024-02-15T07:20:38;99513.34;;;12.67;90.85
25947;BME280;13745;51.470;9.894;2024-02-15T07:23:23;99507.16;;;12.73;90.52
25947;BME280;13745;51.470;9.894;2024-02-15T07:26:10;99515.72;;;12.78;90.45
25947;BME280;13745;51.470;9.894;2024-02-15T07:28:56;99511.31;;;12.81;90.23
25947;BME280;13745;51.470;9.894;2024-02-15T07:31:42;99511.25;;;12.84;90.34
25947;BME280;13745;51.470;9.894;2024-02-15T07:34:27;99507.75;;;12.85;90.13
25947;BME280;13745;51.470;9.894;2024-02-15T07:37:12;99509.47;;;12.86;90.38
25947;BME280;13745;51.470;9.894;2024-02-15T07:39:59;99504.34;;;12.83;90.06
25947;BME280;13745;51.470;9.894;2024-02-15T07:42:45;99507.81;;;12.84;90.05
25947;BME280;13745;51.470;9.894;2024-02-15T07:45:31;99499.19;;;12.80;90.25
25947;BME280;13745;51.470;9.894;2024-02-15T07:48:19;99492.19;;;12.82;90.27
25947;BME280;13745;51.470;9.894;2024-02-15T07:51:04;99496.56;;;12.82;90.13
25947;BME280;13745;51.470;9.894;2024-02-15T07:53:50;99495.69;;;12.83;90.01
25947;BME280;13745;51.470;9.894;2024-02-15T07:56:35;99493.88;;;12.86;90.15
25947;BME280;13745;51.470;9.894;2024-02-15T07:59:21;99489.59;;;12.84;90.08
25947;BME280;13745;51.470;9.894;2024-02-15T08:02:06;99496.59;;;12.80;90.08
25947;BME280;13745;51.470;9.894;2024-02-15T08:04:51;99491.41;;;12.79;90.18
25947;BME280;13745;51.470;9.894;2024-02-15T08:07:38;99488.75;;;12.82;90.16
25947;BME280;13745;51.470;9.894;2024-02-15T08:10:23;99493.00;;;12.86;90.17
25947;BME280;13745;51.470;9.894;2024-02-15T08:13:08;99494.72;;;12.87;90.21
25947;BME280;13745;51.470;9.894;2024-02-15T08:15:54;99486.88;;;12.88;90.09
25947;BME280;13745;51.470;9.894;2024-02-15T08:18:41;99492.00;;;12.93;89.85
25947;BME280;13745;51.470;9.894;2024-02-15T08:21:28;99474.53;;;13.00;90.11
25947;BME280;13745;51.470;9.894;2024-02-15T08:24:16;99476.06;;;13.08;89.59
25947;BME280;13745;51.470;9.894;2024-02-15T08:27:01;99464.59;;;13.17;89.25
25947;BME280;13745;51.470;9.894;2024-02-15T08:29:48;99465.41;;;13.19;88.94
25947;BME280;13745;51.470;9.894;2024-02-15T08:32:35;99458.50;;;13.18;89.27
25947;BME280;13745;51.470;9.894;2024-02-15T08:35:20;99462.81;;;13.19;89.26
25947;BME280;13745;51.470;9.894;2024-02-15T08:38:06;99456.78;;;13.17;89.41
25947;BME280;13745;51.470;9.894;2024-02-15T08:40:51;99462.84;;;13.17;89.20
25947;BME280;13745;51.470;9.894;2024-02-15T08:43:36;99464.59;;;13.15;89.34
25947;BME280;13745;51.470;9.894;2024-02-15T08:46:23;99472.44;;;13.14;89.37
25947;BME280;13745;51.470;9.894;2024-02-15T08:49:10;99484.59;;;13.13;89.50
25947;BME280;13745;51.470;9.894;2024-02-15T08:51:57;99490.66;;;13.14;89.44
25947;BME280;13745;51.470;9.894;2024-02-15T08:54:42;99500.19;;;13.15;89.37
25947;BME280;13745;51.470;9.894;2024-02-15T08:57:27;99507.97;;;13.16;89.51
25947;BME280;13745;51.470;9.894;2024-02-15T09:00:13;99508.84;;;13.17;89.29
25947;BME280;13745;51.470;9.894;2024-02-15T09:02:59;99507.94;;;13.19;89.46
25947;BME280;13745;51.470;9.894;2024-02-15T09:05:46;99507.03;;;13.20;89.42
25947;BME280;13745;51.470;9.894;2024-02-15T09:08:31;99501.78;;;13.22;89.17
25947;BME280;13745;51.470;9.894;2024-02-15T09:11:17;99503.47;;;13.26;89.27
25947;BME280;13745;51.470;9.894;2024-02-15T09:14:03;99503.38;;;13.29;88.95
25947;BME280;13745;51.470;9.894;2024-02-15T09:16:47;99494.63;;;13.32;88.87
25947;BME280;13745;51.470;9.894;2024-02-15T09:19:33;99501.47;;;13.37;88.67
25947;BME280;13745;51.470;9.894;2024-02-15T09:22:19;99490.94;;;13.42;88.31
25947;BME280;13745;51.470;9.894;2024-02-15T09:25:05;99496.94;;;13.45;88.32
25947;BME280;13745;51.470;9.894;2024-02-15T09:27:51;99488.84;;;13.58;88.21
25947;BME280;13745;51.470;9.894;2024-02-15T09:30:37;99478.13;;;13.70;88.28
25947;BME280;13745;51.470;9.894;2024-02-15T09:33:22;99479.59;;;13.80;87.65
25947;BME280;13745;51.470;9.894;2024-02-15T09:36:08;99487.88;;;13.96;87.42
25947;BME280;13745;51.470;9.894;2024-02-15T09:38:54;99484.09;;;14.09;86.91
25947;BME280;13745;51.470;9.894;2024-02-15T09:41:39;99481.09;;;14.23;86.77
25947;BME280;13745;51.470;9.894;2024-02-15T09:44:26;99479.59;;;14.47;86.13
25947;BME280;13745;51.470;9.894;2024-02-15T09:47:12;99482.59;;;14.66;85.53
25947;BME280;13745;51.470;9.894;2024-02-15T09:50:00;99490.84;;;14.80;85.37
25947;BME280;13745;51.470;9.894;2024-02-15T09:52:49;99476.03;;;14.82;84.78
25947;BME280;13745;51.470;9.894;2024-02-15T09:55:36;99486.25;;;14.88;84.97
25947;BME280;13745;51.470;9.894;2024-02-15T09:58:25;99495.34;;;15.04;84.52
25947;BME280;13745;51.470;9.894;2024-02-15T10:01:11;99487.88;;;15.22;83.85
25947;BME280;13745;51.470;9.894;2024-02-15T10:03:58;99484.28;;;15.26;83.34
25947;BME280;13745;51.470;9.894;2024-02-15T10:06:44;99485.31;;;15.20;83.60
25947;BME280;13745;51.470;9.894;2024-02-15T10:09:30;99489.84;;;15.13;83.55
25947;BME280;13745;51.470;9.894;2024-02-15T10:12:17;99486.63;;;15.05;83.71
25947;BME280;13745;51.470;9.894;2024-02-15T10:15:02;99485.81;;;15.03;84.00
25947;BME280;13745;51.470;9.894;2024-02-15T10:17:54;99482.50;;;14.98;84.11
25947;BME280;13745;51.470;9.894;2024-02-15T10:20:39;99475.56;;;14.97;84.12
25947;BME280;13745;51.470;9.894;2024-02-15T10:23:27;99482.63;;;14.94;84.13
25947;BME280;13745;51.470;9.894;2024-02-15T10:26:19;99481.25;;;14.82;84.23
25947;BME280;13745;51.470;9.894;2024-02-15T10:29:08;99480.50;;;14.77;84.50
25947;BME280;13745;51.470;9.894;2024-02-15T10:31:55;99477.94;;;14.75;84.10
25947;BME280;13745;51.470;9.894;2024-02-15T10:34:45;99464.91;;;14.75;84.64
25947;BME280;13745;51.470;9.894;2024-02-15T10:37:30;99459.63;;;14.77;84.11
25947;BME280;13745;51.470;9.894;2024-02-15T10:40:20;99455.16;;;14.80;84.39
25947;BME280;13745;51.470;9.894;2024-02-15T10:43:06;99449.69;;;14.89;84.19
25947;BME280;13745;51.470;9.894;2024-02-15T10:45:52;99451.94;;;15.02;84.12
25947;BME280;13745;51.470;9.894;2024-02-15T10:48:38;99457.72;;;15.11;83.87
25947;BME280;13745;51.470;9.894;2024-02-15T10:51:23;99461.84;;;15.18;83.80
25947;BME280;13745;51.470;9.894;2024-02-15T10:54:12;99470.69;;;15.42;83.29
25947;BME280;13745;51.470;9.894;2024-02-15T10:57:03;99469.50;;;15.81;82.42
25947;BME280;13745;51.470;9.894;2024-02-15T10:59:54;99476.19;;;16.14;81.63
25947;BME280;13745;51.470;9.894;2024-02-15T11:02:49;99484.03;;;16.14;80.97
25947;BME280;13745;51.470;9.894;2024-02-15T11:05:40;99484.03;;;15.89;81.77
25947;BME280;13745;51.470;9.894;2024-02-15T11:08:27;99479.44;;;15.69;82.06
25947;BME280;13745;51.470;9.894;2024-02-15T11:11:12;99480.50;;;15.64;81.97
25947;BME280;13745;51.470;9.894;2024-02-15T11:14:23;99471.00;;;15.60;82.25
25947;BME280;13745;51.470;9.894;2024-02-15T11:17:08;99471.84;;;15.62;82.54
25947;BME280;13745;51.470;9.894;2024-02-15T11:19:56;99476.06;;;15.66;82.02
25947;BME280;13745;51.470;9.894;2024-02-15T11:22:41;99475.50;;;15.56;81.69
25947;BME280;13745;51.470;9.894;2024-02-15T11:25:31;99470.59;;;15.45;81.83
25947;BME280;13745;51.470;9.894;2024-02-15T11:28:36;99461.34;;;15.35;81.92
25947;BME280;13745;51.470;9.894;2024-02-15T11:31:52;99452.03;;;15.27;82.20
25947;BME280;13745;51.470;9.894;2024-02-15T11:34:47;99456.47;;;15.25;82.21
25947;BME280;13745;51.470;9.894;2024-02-15T11:37:55;99455.38;;;15.30;82.27
25947;BME280;13745;51.470;9.894;2024-02-15T11:41:10;99451.69;;;15.37;81.69
25947;BME280;13745;51.470;9.894;2024-02-15T11:43:56;99447.38;;;15.36;81.84
25947;BME280;13745;51.470;9.894;2024-02-15T11:46:41;99446.28;;;15.43;81.88
25947;BME280;13745;51.470;9.894;2024-02-15T11:49:27;99439.50;;;15.66;81.11
25947;BME280;13745;51.470;9.894;2024-02-15T11:52:13;99430.97;;;15.86;80.66
25947;BME280;13745;51.470;9.894;2024-02-15T11:55:05;99443.38;;;16.06;80.22
25947;BME280;13745;51.470;9.894;2024-02-15T11:57:54;99429.78;;;16.19;79.57
25947;BME280;13745;51.470;9.894;2024-02-15T12:00:46;99435.88;;;16.20;79.40
25947;BME280;13745;51.470;9.894;2024-02-15T12:03:52;99440.25;;;16.19;79.63
25947;BME280;13745;51.470;9.894;2024-02-15T12:06:56;99438.22;;;16.27;79.35
25947;BME280;13745;51.470;9.894;2024-02-15T12:10:00;99442.44;;;16.32;79.09
25947;BME280;13745;51.470;9.894;2024-02-15T12:13:05;99435.09;;;16.18;79.13
25947;BME280;13745;51.470;9.894;2024-02-15T12:16:08;99438.28;;;16.01;79.82
25947;BME280;13745;51.470;9.894;2024-02-15T12:19:11;99436.09;;;15.89;80.18
25947;BME280;13745;51.470;9.894;2024-02-15T12:21:57;99443.63;;;15.71;80.14
25947;BME280;13745;51.470;9.894;2024-02-15T12:24:43;99434.63;;;15.54;80.44
25947;BME280;13745;51.470;9.894;2024-02-15T12:27:29;99442.94;;;15.38;80.60
25947;BME280;13745;51.470;9.894;2024-02-15T12:30:17;99438.06;;;15.28;80.66
25947;BME280;13745;51.470;9.894;2024-02-15T12:33:09;99436.59;;;15.19;80.55
25947;BME280;13745;51.470;9.894;2024-02-15T12:36:04;99442.84;;;15.13;80.65
25947;BME280;13745;51.470;9.894;2024-02-15T12:38:58;99437.88;;;15.06;80.89
25947;BME280;13745;51.470;9.894;2024-02-15T12:41:48;99438.03;;;15.01;81.41
25947;BME280;13745;51.470;9.894;2024-02-15T12:44:34;99434.56;;;15.01;81.30
25947;BME280;13745;51.470;9.894;2024-02-15T12:47:22;99429.28;;;15.02;81.55
25947;BME280;13745;51.470;9.894;2024-02-15T12:50:13;99430.91;;;15.06;82.00
25947;BME280;13745;51.470;9.894;2024-02-15T12:52:58;99431.78;;;15.07;81.88
25947;BME280;13745;51.470;9.894;2024-02-15T12:55:52;99424.78;;;15.07;82.27
25947;BME280;13745;51.470;9.894;2024-02-15T12:58:38;99434.28;;;15.10;82.10
25947;BME280;13745;51.470;9.894;2024-02-15T13:01:24;99430.81;;;15.09;82.31
25947;BME280;13745;51.470;9.894;2024-02-15T13:04:24;99420.47;;;15.06;82.32
25947;BME280;13745;51.470;9.894;2024-02-15T13:07:10;99424.88;;;15.04;82.28
25947;BME280;13745;51.470;9.894;2024-02-15T13:09:55;99419.28;;;15.16;81.99
25947;BME280;13745;51.470;9.894;2024-02-15T13:12:40;99414.31;;;15.35;81.64
25947;BME280;13745;51.470;9.894;2024-02-15T13:15:26;99415.78;;;15.44;81.73
25947;BME280;13745;51.470;9.894;2024-02-15T13:18:16;99416.13;;;15.60;81.19
25947;BME280;13745;51.470;9.894;2024-02-15T13:21:03;99408.50;;;15.80;80.76
25947;BME280;13745;51.470;9.894;2024-02-15T13:23:49;99406.69;;;15.82;80.41
25947;BME280;13745;51.470;9.894;2024-02-15T13:26:34;99396.13;;;15.85;80.31
25947;BME280;13745;51.470;9.894;2024-02-15T13:29:20;99388.72;;;15.98;80.49
25947;BME280;13745;51.470;9.894;2024-02-15T13:32:05;99391.91;;;16.06;80.02
25947;BME280;13745;51.470;9.894;2024-02-15T13:34:50;99394.22;;;16.15;79.90
25947;BME280;13745;51.470;9.894;2024-02-15T13:37:42;99375.31;;;16.07;79.91
25947;BME280;13745;51.470;9.894;2024-02-15T13:40:30;99374.81;;;15.96;80.29
25947;BME280;13745;51.470;9.894;2024-02-15T13:43:15;99374.47;;;15.82;80.91
25947;BME280;13745;51.470;9.894;2024-02-15T13:46:00;99372.34;;;15.68;81.41
25947;BME280;13745;51.470;9.894;2024-02-15T13:48:45;99371.00;;;15.55;81.77
25947;BME280;13745;51.470;9.894;2024-02-15T13:51:30;99358.50;;;15.38;82.23
25947;BME280;13745;51.470;9.894;2024-02-15T13:54:20;99350.06;;;15.30;82.60
25947;BME280;13745;51.470;9.894;2024-02-15T13:57:06;99352.94;;;15.22;82.64
25947;BME280;13745;51.470;9.894;2024-02-15T13:59:51;99345.31;;;15.16;82.98
25947;BME280;13745;51.470;9.894;2024-02-15T14:02:37;99343.50;;;15.18;82.93
25947;BME280;13745;51.470;9.894;2024-02-15T14:05:23;99341.75;;;15.18;83.09
25947;BME280;13745;51.470;9.894;2024-02-15T14:08:09;99338.13;;;15.23;83.11
25947;BME280;13745;51.470;9.894;2024-02-15T14:10:56;99331.91;;;15.27;83.05
25947;BME280;13745;51.470;9.894;2024-02-15T14:13:41;99315.56;;;15.20;83.57
25947;BME280;13745;51.470;9.894;2024-02-15T14:16:26;99315.75;;;15.15;83.31
25947;BME280;13745;51.470;9.894;2024-02-15T14:19:12;99308.22;;;15.06;83.69
25947;BME280;13745;51.470;9.894;2024-02-15T14:21:57;99317.94;;;15.01;83.77
25947;BME280;13745;51.470;9.894;2024-02-15T14:24:42;99309.19;;;15.02;83.98
25947;BME280;13745;51.470;9.894;2024-02-15T14:27:29;99305.00;;;14.98;83.85
25947;BME280;13745;51.470;9.894;2024-02-15T14:30:14;99304.03;;;15.01;84.17
25947;BME280;13745;51.470;9.894;2024-02-15T14:33:17;99311.69;;;15.05;84.31
25947;BME280;13745;51.470;9.894;2024-02-15T14:36:03;99313.47;;;15.05;84.20
25947;BME280;13745;51.470;9.894;2024-02-15T14:38:49;99307.50;;;15.01;83.90
25947;BME280;13745;51.470;9.894;2024-02-15T14:41:35;99307.50;;;15.01;84.20
25947;BME280;13745;51.470;9.894;2024-02-15T14:44:23;99305.78;;;15.00;84.12
25947;BME280;13745;51.470;9.894;2024-02-15T14:47:08;99310.06;;;15.03;84.25